Terminal Aerodrome Forecast
Issued by NWS

Home | Current Version | Previous Version | Text Only | Print | Product List | Glossary On
Versions: 1 2 3 4 5 6 7 8 9 10 11 12 13 14 15 16 17 18 19 20 21 22 23 24
000
FTUS43 KAPX 282320
TAFAPN
TAF
KAPN 282320Z 2900/2924 20007KT P6SM BKN200
     FM290300 18005KT P6SM BKN090 OVC180
     FM290900 20005KT P6SM -SHRA BKN050 OVC090
     FM291300 19004KT 6SM -SHRA BR BKN035 OVC090
     FM291900 19007KT P6SM OVC060=

USA.gov is the U.S. government's official web portal to all federal, state and local government web resources and services.